Latest Weather Observations for Essendon Airport

IDV60801

Issued at 9:02 pm EDT Sunday 25 January 2015 (issued every 30 minutes, with the page automatically refreshed every 10 minutes)

About weather observations | Map of weather stations | Latest weather observations for VIC | Other Formats
Station Details ID: 086038 Name: ESSENDON AIRPORT Lat: -37.73 Lon: 144.91 Height: 78.4 m
Data from the previous 72 hours. | See also: Recent months at Essendon Airport
Date/Time
EDT
Temp
°C
App
Temp
°C
Dew
Point
Rel
Hum
%
Delta-T
°C
Wind Press
QNH
hPa
Press
MSL
hPa
Rain
since 9 am
mm
Dir
 
Spd
km/h
Gust
km/h
Spd
kts
Gust
kts
25/09:00pm 16.0 9.9 4.7 47 5.3 SW 26 33 14 18 1012.5 1012.3 0.0
25/08:30pm 16.9 10.8 4.6 44 5.8 SW 26 37 14 20 1012.0 1011.8 0.0
25/08:00pm 17.3 12.8 8.7 57 4.4 S 22 32 12 17 1011.7 1011.5 0.0
25/07:30pm 17.3 12.5 8.7 57 4.4 S 24 32 13 17 1011.2 1011.0 0.0
25/07:05pm 19.0 12.7 5.5 41 6.6 SSW 28 48 15 26 1010.7 1010.5 0.0
25/07:00pm 18.6 12.1 4.8 40 6.7 SSW 28 39 15 21 1010.8 1010.6 0.0
25/06:30pm 18.8 12.9 5.6 42 6.5 SW 26 41 14 22 1010.4 1010.2 0.0
25/06:00pm 18.8 11.1 5.3 41 6.6 SW 35 50 19 27 1010.2 1010.0 0.0
25/05:48pm 19.2 11.9 7.0 45 6.2 SW 35 54 19 29 1010.2 1010.0 0.0
25/05:30pm 19.5 11.7 6.6 43 6.5 SW 37 52 20 28 1009.9 1009.7 0.0
25/05:13pm 20.1 12.8 5.4 38 7.3 SW 33 52 18 28 1009.6 1009.4 0.0
25/05:00pm 20.4 12.6 4.8 36 7.6 SW 35 52 19 28 1009.5 1009.3 0.0
25/04:30pm 20.9 13.6 4.5 34 8.0 SW 32 46 17 25 1009.2 1009.0 0.0
25/04:00pm 21.1 13.2 4.2 33 8.2 SW 35 54 19 29 1009.0 1008.8 0.0
25/03:53pm 20.5 12.9 3.7 33 8.0 WSW 33 52 18 28 1009.0 1008.8 0.0
25/03:30pm 22.5 13.9 2.6 27 9.5 WSW 37 52 20 28 1008.6 1008.4 0.0
25/03:19pm 22.0 14.5 3.2 29 9.0 WSW 32 50 17 27 1008.7 1008.5 0.0
25/03:00pm 22.1 14.6 4.6 32 8.6 WSW 33 48 18 26 1008.7 1008.5 0.0
25/02:41pm 20.7 14.2 4.7 35 7.8 WSW 28 48 15 26 1008.8 1008.6 0.0
25/02:30pm 21.3 14.0 4.4 33 8.3 WSW 32 43 17 23 1008.8 1008.6 0.0
25/02:00pm 20.5 13.0 3.3 32 8.2 WSW 32 46 17 25 1008.6 1008.4 0.0
25/01:39pm 21.5 14.0 3.7 31 8.6 WSW 32 52 17 28 1008.5 1008.3 0.0
25/01:30pm 21.7 14.1 3.9 31 8.6 WSW 33 50 18 27 1008.5 1008.3 0.0
25/01:00pm 20.8 13.4 5.2 36 7.7 WSW 33 44 18 24 1008.5 1008.3 0.0
25/12:30pm 20.4 13.0 4.8 36 7.6 WSW 33 48 18 26 1008.6 1008.4 0.0
25/12:00pm 19.6 12.6 7.0 44 6.4 WSW 33 48 18 26 1008.5 1008.3 0.0
25/11:57am 19.4 13.0 5.1 39 7.0 WSW 28 46 15 25 1008.5 1008.3 0.0
25/11:30am 18.6 11.5 6.4 45 6.1 WSW 33 44 18 24 1008.5 1008.3 0.0
25/11:00am 18.6 11.4 5.1 41 6.6 WSW 32 46 17 25 1008.4 1008.2 0.0
25/10:30am 17.7 12.1 5.3 44 6.0 WSW 24 39 13 21 1008.3 1008.1 0.0
25/10:00am 18.9 13.0 7.7 48 5.7 WSW 28 41 15 22 1008.0 1007.8 0.0
25/09:30am 16.5 12.2 9.2 62 3.8 WSW 22 32 12 17 1007.9 1007.7 0.0
25/09:00am 15.8 9.9 9.2 65 3.4 WSW 30 39 16 21 1007.6 1007.4 0.0
25/08:30am 15.8 11.5 9.5 66 3.3 WSW 22 35 12 19 1007.3 1007.1 0.0
25/08:00am 16.0 12.0 10.5 70 2.9 W 22 30 12 16 1007.0 1006.7 0.0
25/07:30am 15.1 11.1 10.5 74 2.4 WSW 22 30 12 16 1006.5 1006.2 0.0
25/07:00am 14.6 10.8 11.2 80 1.8 W 22 32 12 17 1006.2 1005.9 0.0
25/06:30am 14.3 10.7 11.8 85 1.3 W 22 32 12 17 1005.9 1005.6 0.0
25/06:13am 14.2 11.2 12.6 90 0.9 WSW 20 26 11 14 1005.4 1005.1 0.0
25/06:00am 14.0 11.0 12.6 91 0.8 WSW 20 28 11 15 1005.1 1004.8 0.0
25/05:44am 14.1 9.2 12.5 90 0.9 WSW 30 41 16 22 1005.0 1004.7 0.0
25/05:30am 15.0 9.1 12.3 84 1.5 WSW 35 50 19 27 1004.8 1004.5 0.0
25/05:11am 16.2 11.4 11.6 74 2.5 WSW 28 37 15 20 1004.1 1003.8 0.0
25/05:00am 15.7 13.8 11.7 77 2.2 NW 13 17 7 9 1003.8 1003.5 0.0
25/04:30am 14.7 12.8 11.7 82 1.6 N 13 15 7 8 1003.2 1002.9 0.0
25/04:00am 14.2 12.6 11.4 83 1.5 N 11 13 6 7 1003.0 1002.7 0.0
25/03:30am 14.6 13.0 11.6 82 1.6 NNW 11 13 6 7 1002.8 1002.5 0.0
25/03:00am 15.2 13.7 11.8 80 1.9 NNW 11 13 6 7 1003.0 1002.7 0.0
25/02:30am 15.3 13.7 11.7 79 1.9 NNW 11 15 6 8 1003.0 1002.7 0.0
25/02:00am 15.7 13.8 11.7 77 2.2 WNW 13 17 7 9 1003.6 1003.3 0.0
25/01:30am 16.0 14.0 11.6 75 2.4 WNW 13 15 7 8 1003.6 1003.3 0.0
25/01:00am 16.5 14.6 11.9 74 2.5 WSW 13 19 7 10 1003.7 1003.4 0.0
25/12:30am 16.8 14.9 11.7 72 2.8 SW 13 15 7 8 1003.8 1003.5 0.0
25/12:00am 17.0 15.7 11.3 69 3.1 SSW 9 11 5 6 1003.7 1003.4 0.0
 
Date/Time
EDT
Temp
°C
App
Temp
°C
Dew
Point
Rel
Hum
%
Delta-T
°C
Wind Press
QNH
hPa
Press
MSL
hPa
Rain
since 9 am
mm
Dir
 
Spd
km/h
Gust
km/h
Spd
kts
Gust
kts
24/11:30pm 18.1 16.7 12.1 68 3.3 SSW 11 15 6 8 1003.7 1003.4 0.0
24/11:00pm 18.8 17.0 13.2 70 3.2 S 15 20 8 11 1004.0 1003.7 0.0
24/10:30pm 18.8 16.6 13.4 71 3.1 SSW 17 20 9 11 1004.1 1003.8 0.0
24/10:00pm 19.2 17.1 14.7 75 2.6 SSW 19 24 10 13 1003.8 1003.5 0.0
24/09:30pm 19.5 17.1 14.5 73 2.9 S 20 26 11 14 1003.5 1003.2 0.0
24/09:00pm 20.1 17.2 15.1 73 3.0 SSW 24 32 13 17 1003.2 1002.9 0.0
24/08:30pm 20.9 18.3 14.8 68 3.6 SSW 22 28 12 15 1002.7 1002.4 0.0
24/08:00pm 21.6 19.7 15.7 69 3.6 SSW 20 26 11 14 1002.1 1001.8 0.0
24/07:30pm 22.3 20.2 15.2 64 4.2 SSW 20 26 11 14 1001.8 1001.6 0.0
24/07:00pm 23.1 19.5 13.0 53 5.9 SSW 24 30 13 16 1001.6 1001.4 0.0
24/06:30pm 22.9 18.9 14.2 58 5.1 S 28 35 15 19 1001.4 1001.2 0.0
24/06:00pm 24.1 20.4 15.1 57 5.4 S 28 35 15 19 1001.3 1001.1 0.0
24/05:30pm 25.1 22.0 14.6 52 6.3 S 24 32 13 17 1001.1 1000.9 0.0
24/05:00pm 25.5 23.0 14.0 49 6.9 S 20 26 11 14 1001.0 1000.8 0.0
24/04:30pm 26.1 22.8 13.9 47 7.2 S 24 30 13 16 1001.2 1001.0 0.0
24/04:00pm 26.7 23.8 14.1 46 7.6 S 22 30 12 16 1001.5 1001.3 0.0
24/03:30pm 26.4 23.8 14.8 49 7.0 S 22 30 12 16 1002.0 1001.7 0.0
24/03:00pm 26.0 22.1 14.5 49 6.9 SSE 28 35 15 19 1002.3 1002.0 0.0
24/02:30pm 25.8 22.5 14.0 48 7.0 S 24 30 13 16 1002.5 1002.2 0.0
24/02:00pm 27.0 24.0 14.7 47 7.5 S 24 33 13 18 1002.9 1002.6 0.0
24/01:30pm 27.0 24.1 14.1 45 7.7 S 22 32 12 17 1003.3 1003.0 0.0
24/01:00pm 27.3 26.3 13.3 42 8.3 S 11 20 6 11 1003.5 1003.2 0.0
24/12:30pm 26.2 25.7 13.7 46 7.4 SE 9 13 5 7 1003.9 1003.6 0.0
24/12:00pm 24.7 24.3 13.0 48 6.8 S 7 13 4 7 1004.3 1004.0 0.0
24/11:30am 22.9 22.0 12.5 52 5.9 SW 9 15 5 8 1004.9 1004.6 0.0
24/11:00am 22.0 21.6 13.1 57 5.1 WSW 7 11 4 6 1005.3 1005.0 0.0
24/10:30am 20.6 19.4 12.8 61 4.4 E 11 15 6 8 1005.6 1005.3 0.0
24/10:00am 20.0 19.8 13.5 66 3.7 NE 7 11 4 6 1006.0 1005.7 0.0
24/09:30am 18.8 18.3 12.8 68 3.4 SW 7 9 4 5 1006.3 1006.0 0.0
24/09:03am 18.7 18.5 13.6 72 2.9 N 7 13 4 7 1006.4 1006.1 0.0
24/09:00am 18.1 17.3 12.8 71 3.0 N 9 13 5 7 1006.4 1006.1 0.0
24/08:30am 18.5 18.7 13.1 71 3.1 W 4 7 2 4 1006.1 1005.8 0.0
24/08:24am 17.4 17.0 12.5 73 2.7 WNW 6 9 3 5 1006.1 1005.8 0.0
24/08:00am 16.8 15.9 12.5 76 2.4 WNW 9 11 5 6 1006.0 1005.7 0.0
24/07:30am 15.4 14.5 12.5 83 1.6 WNW 9 13 5 7 1005.8 1005.5 0.0
24/07:00am 13.6 12.5 11.8 89 1.0 NW 9 11 5 6 1005.7 1005.4 0.0
24/06:30am 13.2 11.5 11.1 87 1.1 NW 11 13 6 7 1005.8 1005.5 0.0
24/06:00am 13.2 11.5 11.1 87 1.1 NW 11 13 6 7 1005.8 1005.5 0.0
24/05:30am 13.6 12.0 11.5 87 1.1 NW 11 15 6 8 1005.9 1005.6 0.0
24/05:00am 13.3 11.6 11.2 87 1.1 WNW 11 13 6 7 1005.8 1005.5 0.0
24/04:30am 13.8 12.5 11.3 85 1.3 WNW 9 11 5 6 1005.8 1005.5 0.0
24/04:00am 14.5 13.6 11.5 82 1.6 SSW 7 9 4 5 1006.0 1005.7 0.0
24/03:30am 15.2 14.5 12.1 82 1.7 S 7 11 4 6 1006.3 1006.0 0.0
24/03:00am 15.1 14.4 11.9 81 1.7 S 7 11 4 6 1006.4 1006.1 0.0
24/02:30am 15.2 14.1 12.0 81 1.7 S 9 13 5 7 1006.8 1006.5 0.0
24/02:00am 15.6 14.6 12.2 80 1.9 S 9 13 5 7 1007.1 1006.8 0.0
24/01:30am 15.6 14.5 12.0 79 2.0 S 9 13 5 7 1007.6 1007.4 0.0
24/01:00am 16.1 14.4 12.3 78 2.1 SSE 13 17 7 9 1007.9 1007.7 0.0
24/12:30am 16.1 14.7 12.3 78 2.1 SSE 11 13 6 7 1008.1 1007.9 0.0
24/12:00am 16.5 15.2 12.5 77 2.2 SSE 11 17 6 9 1008.3 1008.1 0.0
 
Date/Time
EDT
Temp
°C
App
Temp
°C
Dew
Point
Rel
Hum
%
Delta-T
°C
Wind Press
QNH
hPa
Press
MSL
hPa
Rain
since 9 am
mm
Dir
 
Spd
km/h
Gust
km/h
Spd
kts
Gust
kts
23/11:30pm 16.8 14.2 12.1 74 2.6 SSE 17 20 9 11 1008.4 1008.2 0.0
23/11:00pm 17.0 13.8 11.9 72 2.8 SE 20 26 11 14 1008.7 1008.5 0.0
23/10:30pm 17.4 14.2 11.4 68 3.3 SE 19 26 10 14 1008.8 1008.6 0.0
23/10:00pm 17.7 14.4 11.7 68 3.3 SE 20 26 11 14 1008.9 1008.7 0.0
23/09:30pm 18.2 14.9 11.5 65 3.7 SSE 20 26 11 14 1008.9 1008.7 0.0
23/09:00pm 19.0 14.9 11.6 62 4.1 SSE 24 32 13 17 1008.7 1008.5 0.0
23/08:30pm 19.0 14.2 13.0 68 3.4 S 30 39 16 21 1008.5 1008.3 0.0
23/08:00pm 19.3 14.1 12.8 66 3.7 S 32 44 17 24 1008.4 1008.2 0.0
23/07:30pm 19.5 14.6 12.7 65 3.8 S 30 39 16 21 1007.9 1007.7 0.0
23/07:00pm 20.2 15.3 12.7 62 4.3 S 30 43 16 23 1007.6 1007.4 0.0
23/06:30pm 20.9 15.7 12.8 60 4.6 S 32 43 17 23 1007.3 1007.1 0.0
23/06:00pm 21.4 16.8 13.6 61 4.5 S 30 39 16 21 1007.1 1006.8 0.0
23/05:30pm 22.1 17.9 14.7 63 4.4 S 30 39 16 21 1006.8 1006.5 0.0
23/05:00pm 22.5 18.5 14.1 59 4.9 S 28 35 15 19 1006.6 1006.3 0.0
23/04:30pm 22.3 18.0 14.4 61 4.7 S 30 41 16 22 1006.6 1006.3 0.0
23/04:00pm 22.5 18.3 14.6 61 4.7 S 30 37 16 20 1006.4 1006.1 0.0
23/03:30pm 22.8 18.5 15.4 63 4.4 S 32 41 17 22 1006.4 1006.1 0.0
23/03:00pm 22.9 18.4 15.0 61 4.7 S 32 39 17 21 1006.3 1006.0 0.0
23/02:30pm 24.3 21.2 15.5 58 5.3 S 26 35 14 19 1006.1 1005.8 0.0
23/02:00pm 24.7 20.7 15.1 55 5.8 S 30 39 16 21 1006.4 1006.1 0.0
23/01:30pm 24.8 22.3 15.1 54 5.8 SSE 22 33 12 18 1006.6 1006.3 0.0
23/01:00pm 24.1 20.8 13.9 53 6.0 S 24 32 13 17 1006.6 1006.3 0.0
23/12:30pm 24.2 20.0 12.5 48 6.7 S 26 33 14 18 1006.6 1006.3 0.0
23/12:00pm 24.5 18.9 8.9 37 8.5 SSW 28 37 15 20 1006.5 1006.2 0.0
23/11:30am 25.0 20.3 10.5 40 8.1 S 26 33 14 18 1006.3 1006.0 0.0
23/11:00am 25.2 20.3 11.4 42 7.8 S 28 35 15 19 1006.3 1006.0 0.0
23/10:30am 24.2 20.0 13.4 51 6.3 S 28 33 15 18 1006.1 1005.8 0.0
23/10:00am 25.3 23.0 14.7 51 6.4 S 20 30 11 16 1005.9 1005.6 0.0
23/09:30am 25.0 22.1 13.9 50 6.6 SW 22 28 12 15 1005.7 1005.4 0.0
23/09:00am 24.2 22.3 14.3 54 5.9 SW 17 24 9 13 1005.7 1005.4 0.0
23/08:30am 23.0 21.9 15.3 62 4.6 SW 15 24 8 13 1005.5 1005.2 0.0
23/08:00am 22.6 22.0 15.7 65 4.2 SW 13 15 7 8 1005.1 1004.8 0.0
23/07:30am 22.2 22.6 15.3 65 4.1 WSW 7 11 4 6 1004.7 1004.4 0.0
23/07:00am 22.4 20.9 15.3 64 4.3 WSW 17 20 9 11 1004.5 1004.2 0.0
23/06:30am 22.3 21.0 14.9 63 4.4 WSW 15 19 8 10 1004.1 1003.8 0.0
23/06:00am 23.1 21.8 15.7 63 4.5 NW 17 28 9 15 1003.4 1003.1 0.0
23/05:30am 23.5 23.1 16.1 63 4.5 NNW 13 19 7 10 1002.8 1002.5 0.0
23/05:00am 23.6 22.5 16.4 64 4.4 NW 17 20 9 11 1002.8 1002.5 0.0
23/04:30am 19.5 19.9 16.2 81 2.0 N 9 11 5 6 1002.9 1002.6 0.0
23/04:00am 20.3 20.9 16.7 80 2.2 WSW 9 13 5 7 1003.4 1003.1 0.0
23/03:30am 20.4 22.6 16.6 79 2.3 CALM 0 0 0 0 1003.4 1003.1 0.0
23/03:00am 20.6 22.8 16.6 78 2.4 CALM 0 0 0 0 1003.4 1003.1 0.0
23/02:30am 20.8 23.1 16.8 78 2.4 CALM 0 4 0 2 1004.0 1003.7 0.0
23/02:00am 20.3 21.4 16.7 80 2.2 N 6 11 3 6 1004.3 1004.0 0.0
23/01:30am 20.8 21.8 16.8 78 2.4 NNW 7 9 4 5 1005.1 1004.8 0.0
23/01:00am 20.4 21.0 16.8 80 2.2 NNW 9 11 5 6 1005.5 1005.2 0.0
23/12:30am 20.3 20.9 16.7 80 2.2 N 9 13 5 7 1005.8 1005.5 0.0
23/12:00am 20.2 20.8 16.8 81 2.1 N 9 13 5 7 1006.2 1005.9 0.0
 
Date/Time
EDT
Temp
°C
App
Temp
°C
Dew
Point
Rel
Hum
%
Delta-T
°C
Wind Press
QNH
hPa
Press
MSL
hPa
Rain
since 9 am
mm
Dir
 
Spd
km/h
Gust
km/h
Spd
kts
Gust
kts
22/11:30pm 20.0 20.6 16.8 82 1.9 NNW 9 11 5 6 1006.7 1006.4 0.0
22/11:00pm 20.0 20.7 17.0 83 1.8 NNW 9 11 5 6 1007.0 1006.7 0.0
22/10:30pm 19.7 20.8 17.1 85 1.6 NW 7 11 4 6 1007.7 1007.5 0.0
22/10:06pm 19.4 21.7 16.8 85 1.6 CALM 0 4 0 2 1007.8 1007.6 0.0
22/10:00pm 19.5 21.1 16.9 85 1.6 SW 4 7 2 4 1008.0 1007.8 0.0
22/09:48pm 19.6 20.7 17.0 85 1.6 SW 7 11 4 6 1008.1 1007.9 0.0
22/09:30pm 19.6 19.6 17.2 86 1.5 SW 13 17 7 9 1008.4 1008.2 0.0
22/09:10pm 19.6 19.6 17.2 86 1.5 WSW 13 19 7 10 1008.2 1008.0 0.0

Other Formats:

Comma delimited format used in spreadsheet applications
http://www.bom.gov.au/fwo/IDV60801/IDV60801.95866.axf

JavaScript Object Notation format (JSON) in row-major order
http://www.bom.gov.au/fwo/IDV60801/IDV60801.95866.json